sensor_id;sensor_type;location;lat;lon;timestamp;temperature;humidity
44271;DHT22;29963;44.594;11.368;2023-03-11T00:01:51;15.20;91.20
44271;DHT22;29963;44.594;11.368;2023-03-11T00:04:17;15.20;91.30
44271;DHT22;29963;44.594;11.368;2023-03-11T00:06:42;15.20;91.00
44271;DHT22;29963;44.594;11.368;2023-03-11T00:09:08;15.20;91.00
44271;DHT22;29963;44.594;11.368;2023-03-11T00:11:34;15.20;91.00
44271;DHT22;29963;44.594;11.368;2023-03-11T00:13:59;15.20;90.70
44271;DHT22;29963;44.594;11.368;2023-03-11T00:16:25;15.20;90.70
44271;DHT22;29963;44.594;11.368;2023-03-11T00:18:51;15.20;90.40
44271;DHT22;29963;44.594;11.368;2023-03-11T00:21:17;15.10;90.40
44271;DHT22;29963;44.594;11.368;2023-03-11T00:23:44;15.10;90.10
44271;DHT22;29963;44.594;11.368;2023-03-11T00:26:10;15.10;90.00
44271;DHT22;29963;44.594;11.368;2023-03-11T00:28:36;15.10;90.00
44271;DHT22;29963;44.594;11.368;2023-03-11T00:31:02;15.10;89.90
44271;DHT22;29963;44.594;11.368;2023-03-11T00:33:28;15.10;90.00
44271;DHT22;29963;44.594;11.368;2023-03-11T00:35:53;15.10;90.00
44271;DHT22;29963;44.594;11.368;2023-03-11T00:38:19;15.10;90.00
44271;DHT22;29963;44.594;11.368;2023-03-11T00:40:46;15.20;90.00
44271;DHT22;29963;44.594;11.368;2023-03-11T00:43:12;15.20;90.00
44271;DHT22;29963;44.594;11.368;2023-03-11T00:45:39;15.20;90.00
44271;DHT22;29963;44.594;11.368;2023-03-11T00:48:08;15.20;90.00
44271;DHT22;29963;44.594;11.368;2023-03-11T00:50:36;15.20;89.90
44271;DHT22;29963;44.594;11.368;2023-03-11T00:53:03;15.20;89.50
44271;DHT22;29963;44.594;11.368;2023-03-11T00:55:31;15.20;88.80
44271;DHT22;29963;44.594;11.368;2023-03-11T00:57:59;15.10;88.20
44271;DHT22;29963;44.594;11.368;2023-03-11T01:00:26;15.10;87.90
44271;DHT22;29963;44.594;11.368;2023-03-11T01:02:54;15.10;88.30
44271;DHT22;29963;44.594;11.368;2023-03-11T01:05:22;15.10;88.60
44271;DHT22;29963;44.594;11.368;2023-03-11T01:07:48;15.10;89.00
44271;DHT22;29963;44.594;11.368;2023-03-11T01:10:14;15.00;89.20
44271;DHT22;29963;44.594;11.368;2023-03-11T01:12:41;14.90;89.20
44271;DHT22;29963;44.594;11.368;2023-03-11T01:15:08;14.90;89.20
44271;DHT22;29963;44.594;11.368;2023-03-11T01:17:35;14.80;89.70
44271;DHT22;29963;44.594;11.368;2023-03-11T01:20:00;14.80;89.70
44271;DHT22;29963;44.594;11.368;2023-03-11T01:22:26;14.80;89.60
44271;DHT22;29963;44.594;11.368;2023-03-11T01:24:52;14.80;89.80
44271;DHT22;29963;44.594;11.368;2023-03-11T01:27:17;14.80;88.60
44271;DHT22;29963;44.594;11.368;2023-03-11T01:29:43;14.80;88.40
44271;DHT22;29963;44.594;11.368;2023-03-11T01:32:09;14.90;88.80
44271;DHT22;29963;44.594;11.368;2023-03-11T01:34:35;14.90;88.80
44271;DHT22;29963;44.594;11.368;2023-03-11T01:37:02;14.90;89.00
44271;DHT22;29963;44.594;11.368;2023-03-11T01:39:27;14.90;88.70
44271;DHT22;29963;44.594;11.368;2023-03-11T01:41:53;14.90;89.10
44271;DHT22;29963;44.594;11.368;2023-03-11T01:44:20;14.90;89.00
44271;DHT22;29963;44.594;11.368;2023-03-11T01:49:19;14.90;87.80
44271;DHT22;29963;44.594;11.368;2023-03-11T01:51:47;14.90;87.40
44271;DHT22;29963;44.594;11.368;2023-03-11T01:54:26;15.00;87.40
44271;DHT22;29963;44.594;11.368;2023-03-11T01:56:53;14.90;87.10
44271;DHT22;29963;44.594;11.368;2023-03-11T01:59:24;15.00;85.60
44271;DHT22;29963;44.594;11.368;2023-03-11T02:04:32;15.10;84.50
44271;DHT22;29963;44.594;11.368;2023-03-11T02:06:59;15.10;84.70
44271;DHT22;29963;44.594;11.368;2023-03-11T02:09:25;15.10;85.10
44271;DHT22;29963;44.594;11.368;2023-03-11T02:11:51;15.10;85.00
44271;DHT22;29963;44.594;11.368;2023-03-11T02:14:17;15.10;84.90
44271;DHT22;29963;44.594;11.368;2023-03-11T02:16:43;15.00;84.80
44271;DHT22;29963;44.594;11.368;2023-03-11T02:19:37;15.10;83.50
44271;DHT22;29963;44.594;11.368;2023-03-11T02:22:07;15.10;83.30
44271;DHT22;29963;44.594;11.368;2023-03-11T02:24:40;15.10;83.20
44271;DHT22;29963;44.594;11.368;2023-03-11T02:27:10;15.10;83.20
44271;DHT22;29963;44.594;11.368;2023-03-11T02:29:37;15.10;83.80
44271;DHT22;29963;44.594;11.368;2023-03-11T02:32:06;15.10;84.50
44271;DHT22;29963;44.594;11.368;2023-03-11T02:34:35;15.10;84.00
44271;DHT22;29963;44.594;11.368;2023-03-11T02:37:05;15.00;84.40
44271;DHT22;29963;44.594;11.368;2023-03-11T02:39:36;15.00;84.40
44271;DHT22;29963;44.594;11.368;2023-03-11T02:42:11;15.00;83.70
44271;DHT22;29963;44.594;11.368;2023-03-11T02:44:38;15.00;83.50
44271;DHT22;29963;44.594;11.368;2023-03-11T02:47:08;15.00;83.40
44271;DHT22;29963;44.594;11.368;2023-03-11T02:49:35;15.00;83.00
44271;DHT22;29963;44.594;11.368;2023-03-11T02:52:01;15.00;83.40
44271;DHT22;29963;44.594;11.368;2023-03-11T02:54:27;15.00;83.00
44271;DHT22;29963;44.594;11.368;2023-03-11T02:56:52;15.00;82.80
44271;DHT22;29963;44.594;11.368;2023-03-11T02:59:18;15.00;83.30
44271;DHT22;29963;44.594;11.368;2023-03-11T03:01:43;15.00;83.40
44271;DHT22;29963;44.594;11.368;2023-03-11T03:04:09;15.00;83.60
44271;DHT22;29963;44.594;11.368;2023-03-11T03:06:35;15.00;84.00
44271;DHT22;29963;44.594;11.368;2023-03-11T03:09:00;15.00;84.10
44271;DHT22;29963;44.594;11.368;2023-03-11T03:11:26;15.00;84.40
44271;DHT22;29963;44.594;11.368;2023-03-11T03:13:51;14.90;84.30
44271;DHT22;29963;44.594;11.368;2023-03-11T03:16:17;14.90;84.80
44271;DHT22;29963;44.594;11.368;2023-03-11T03:18:43;14.90;85.20
44271;DHT22;29963;44.594;11.368;2023-03-11T03:21:08;14.90;85.50
44271;DHT22;29963;44.594;11.368;2023-03-11T03:23:34;14.80;85.90
44271;DHT22;29963;44.594;11.368;2023-03-11T03:26:02;14.70;86.10
44271;DHT22;29963;44.594;11.368;2023-03-11T03:28:28;14.70;86.40
44271;DHT22;29963;44.594;11.368;2023-03-11T03:30:54;14.60;86.80
44271;DHT22;29963;44.594;11.368;2023-03-11T03:33:19;14.60;86.90
44271;DHT22;29963;44.594;11.368;2023-03-11T03:35:45;14.50;87.00
44271;DHT22;29963;44.594;11.368;2023-03-11T03:38:11;14.50;87.50
44271;DHT22;29963;44.594;11.368;2023-03-11T03:40:37;14.50;87.50
44271;DHT22;29963;44.594;11.368;2023-03-11T03:43:04;14.40;87.30
44271;DHT22;29963;44.594;11.368;2023-03-11T03:45:32;14.50;87.30
44271;DHT22;29963;44.594;11.368;2023-03-11T03:47:58;14.40;87.60
44271;DHT22;29963;44.594;11.368;2023-03-11T03:50:23;14.40;87.80
44271;DHT22;29963;44.594;11.368;2023-03-11T03:52:49;14.30;87.90
44271;DHT22;29963;44.594;11.368;2023-03-11T03:55:14;14.30;88.00
44271;DHT22;29963;44.594;11.368;2023-03-11T03:57:40;14.30;88.10
44271;DHT22;29963;44.594;11.368;2023-03-11T04:00:06;14.30;87.80
44271;DHT22;29963;44.594;11.368;2023-03-11T04:02:35;14.30;87.80
44271;DHT22;29963;44.594;11.368;2023-03-11T04:05:00;14.20;87.70
44271;DHT22;29963;44.594;11.368;2023-03-11T04:07:26;14.20;87.80
44271;DHT22;29963;44.594;11.368;2023-03-11T04:09:51;14.20;87.30
44271;DHT22;29963;44.594;11.368;2023-03-11T04:12:17;14.20;87.00
44271;DHT22;29963;44.594;11.368;2023-03-11T04:14:43;14.20;87.30
44271;DHT22;29963;44.594;11.368;2023-03-11T04:17:13;14.30;87.60
44271;DHT22;29963;44.594;11.368;2023-03-11T04:19:38;14.30;87.40
44271;DHT22;29963;44.594;11.368;2023-03-11T04:22:04;14.30;88.10
44271;DHT22;29963;44.594;11.368;2023-03-11T04:24:30;14.30;87.50
44271;DHT22;29963;44.594;11.368;2023-03-11T04:26:56;14.30;87.80
44271;DHT22;29963;44.594;11.368;2023-03-11T04:29:22;14.30;87.60
44271;DHT22;29963;44.594;11.368;2023-03-11T04:31:47;14.30;87.60
44271;DHT22;29963;44.594;11.368;2023-03-11T04:34:13;14.30;87.50
44271;DHT22;29963;44.594;11.368;2023-03-11T04:36:39;14.30;87.50
44271;DHT22;29963;44.594;11.368;2023-03-11T04:39:05;14.30;87.70
44271;DHT22;29963;44.594;11.368;2023-03-11T04:41:30;14.30;88.00
44271;DHT22;29963;44.594;11.368;2023-03-11T04:43:58;14.30;87.90
44271;DHT22;29963;44.594;11.368;2023-03-11T04:46:23;14.30;88.20
44271;DHT22;29963;44.594;11.368;2023-03-11T04:48:49;14.30;88.40
44271;DHT22;29963;44.594;11.368;2023-03-11T04:51:14;14.30;88.00
44271;DHT22;29963;44.594;11.368;2023-03-11T04:53:40;14.30;88.40
44271;DHT22;29963;44.594;11.368;2023-03-11T04:56:06;14.30;88.40
44271;DHT22;29963;44.594;11.368;2023-03-11T04:58:31;14.30;88.30
44271;DHT22;29963;44.594;11.368;2023-03-11T05:00:57;14.30;88.20
44271;DHT22;29963;44.594;11.368;2023-03-11T05:03:23;14.30;87.90
44271;DHT22;29963;44.594;11.368;2023-03-11T05:05:48;14.30;88.00
44271;DHT22;29963;44.594;11.368;2023-03-11T05:08:14;14.30;87.90
44271;DHT22;29963;44.594;11.368;2023-03-11T05:10:40;14.30;87.90
44271;DHT22;29963;44.594;11.368;2023-03-11T05:13:07;14.30;87.90
44271;DHT22;29963;44.594;11.368;2023-03-11T05:15:32;14.30;88.10
44271;DHT22;29963;44.594;11.368;2023-03-11T05:17:58;14.40;87.90
44271;DHT22;29963;44.594;11.368;2023-03-11T05:20:27;14.40;88.10
44271;DHT22;29963;44.594;11.368;2023-03-11T05:22:52;14.30;87.60
44271;DHT22;29963;44.594;11.368;2023-03-11T05:25:18;14.30;87.70
44271;DHT22;29963;44.594;11.368;2023-03-11T05:27:43;14.30;87.60
44271;DHT22;29963;44.594;11.368;2023-03-11T05:30:10;14.30;87.60
44271;DHT22;29963;44.594;11.368;2023-03-11T05:32:35;14.30;87.60
44271;DHT22;29963;44.594;11.368;2023-03-11T05:35:01;14.30;87.60
44271;DHT22;29963;44.594;11.368;2023-03-11T05:37:28;14.30;88.00
44271;DHT22;29963;44.594;11.368;2023-03-11T05:39:54;14.30;88.10
44271;DHT22;29963;44.594;11.368;2023-03-11T05:42:20;14.30;88.50
44271;DHT22;29963;44.594;11.368;2023-03-11T05:44:46;14.30;88.60
44271;DHT22;29963;44.594;11.368;2023-03-11T05:47:11;14.30;88.70
44271;DHT22;29963;44.594;11.368;2023-03-11T05:49:37;14.20;88.80
44271;DHT22;29963;44.594;11.368;2023-03-11T05:52:03;14.20;88.20
44271;DHT22;29963;44.594;11.368;2023-03-11T05:54:28;14.20;88.30
44271;DHT22;29963;44.594;11.368;2023-03-11T05:56:54;14.20;88.20
44271;DHT22;29963;44.594;11.368;2023-03-11T05:59:20;14.20;88.00
44271;DHT22;29963;44.594;11.368;2023-03-11T06:01:45;14.20;88.40
44271;DHT22;29963;44.594;11.368;2023-03-11T06:04:11;14.20;88.80
44271;DHT22;29963;44.594;11.368;2023-03-11T06:06:38;14.30;89.60
44271;DHT22;29963;44.594;11.368;2023-03-11T06:09:05;14.30;90.30
44271;DHT22;29963;44.594;11.368;2023-03-11T06:11:31;14.30;90.70
44271;DHT22;29963;44.594;11.368;2023-03-11T06:13:57;14.30;91.50
44271;DHT22;29963;44.594;11.368;2023-03-11T06:16:24;14.40;92.40
44271;DHT22;29963;44.594;11.368;2023-03-11T06:18:50;14.40;92.80
44271;DHT22;29963;44.594;11.368;2023-03-11T06:21:19;14.40;93.30
44271;DHT22;29963;44.594;11.368;2023-03-11T06:23:45;14.40;93.60
44271;DHT22;29963;44.594;11.368;2023-03-11T06:26:17;14.40;93.90
44271;DHT22;29963;44.594;11.368;2023-03-11T06:28:43;14.40;94.10
44271;DHT22;29963;44.594;11.368;2023-03-11T06:31:23;14.40;94.00
44271;DHT22;29963;44.594;11.368;2023-03-11T06:33:50;14.40;94.00
44271;DHT22;29963;44.594;11.368;2023-03-11T06:36:17;14.50;94.10
44271;DHT22;29963;44.594;11.368;2023-03-11T06:38:43;14.50;94.00
44271;DHT22;29963;44.594;11.368;2023-03-11T06:41:11;14.60;93.90
44271;DHT22;29963;44.594;11.368;2023-03-11T06:43:37;14.70;93.90
44271;DHT22;29963;44.594;11.368;2023-03-11T06:46:16;14.80;94.10
44271;DHT22;29963;44.594;11.368;2023-03-11T06:48:42;14.90;94.30
44271;DHT22;29963;44.594;11.368;2023-03-11T06:51:09;14.90;94.50
44271;DHT22;29963;44.594;11.368;2023-03-11T06:53:34;15.00;94.60
44271;DHT22;29963;44.594;11.368;2023-03-11T06:56:09;15.00;94.20
44271;DHT22;29963;44.594;11.368;2023-03-11T06:58:36;15.00;93.90
44271;DHT22;29963;44.594;11.368;2023-03-11T07:01:12;15.10;93.20
44271;DHT22;29963;44.594;11.368;2023-03-11T07:03:38;15.20;93.20
44271;DHT22;29963;44.594;11.368;2023-03-11T07:06:04;15.20;93.20
44271;DHT22;29963;44.594;11.368;2023-03-11T07:08:30;15.30;93.30
44271;DHT22;29963;44.594;11.368;2023-03-11T07:11:17;15.30;93.40
44271;DHT22;29963;44.594;11.368;2023-03-11T07:13:43;15.30;93.30
44271;DHT22;29963;44.594;11.368;2023-03-11T07:16:18;15.40;93.30
44271;DHT22;29963;44.594;11.368;2023-03-11T07:18:46;15.40;93.20
44271;DHT22;29963;44.594;11.368;2023-03-11T07:21:14;15.40;93.00
44271;DHT22;29963;44.594;11.368;2023-03-11T07:23:40;15.50;93.00
44271;DHT22;29963;44.594;11.368;2023-03-11T07:26:13;15.60;92.80
44271;DHT22;29963;44.594;11.368;2023-03-11T07:28:40;15.70;93.00
44271;DHT22;29963;44.594;11.368;2023-03-11T07:31:18;15.70;92.80
44271;DHT22;29963;44.594;11.368;2023-03-11T07:33:44;15.80;92.50
44271;DHT22;29963;44.594;11.368;2023-03-11T07:36:12;15.90;92.20
44271;DHT22;29963;44.594;11.368;2023-03-11T07:38:38;15.90;91.60
44271;DHT22;29963;44.594;11.368;2023-03-11T07:41:04;16.00;91.50
44271;DHT22;29963;44.594;11.368;2023-03-11T07:43:30;16.00;91.00
44271;DHT22;29963;44.594;11.368;2023-03-11T07:46:04;16.10;91.20
44271;DHT22;29963;44.594;11.368;2023-03-11T07:48:30;16.20;91.20
44271;DHT22;29963;44.594;11.368;2023-03-11T07:51:01;16.20;90.50
44271;DHT22;29963;44.594;11.368;2023-03-11T07:53:26;16.30;90.80
44271;DHT22;29963;44.594;11.368;2023-03-11T07:55:56;16.40;90.80
44271;DHT22;29963;44.594;11.368;2023-03-11T07:58:22;16.40;90.80
44271;DHT22;29963;44.594;11.368;2023-03-11T08:00:48;16.40;90.90
44271;DHT22;29963;44.594;11.368;2023-03-11T08:03:13;16.40;91.00
44271;DHT22;29963;44.594;11.368;2023-03-11T08:05:39;16.50;90.90
44271;DHT22;29963;44.594;11.368;2023-03-11T08:08:04;16.50;90.50
44271;DHT22;29963;44.594;11.368;2023-03-11T08:10:30;16.60;90.30
44271;DHT22;29963;44.594;11.368;2023-03-11T08:12:56;16.60;90.60
44271;DHT22;29963;44.594;11.368;2023-03-11T08:15:24;16.60;90.70
44271;DHT22;29963;44.594;11.368;2023-03-11T08:17:50;16.60;90.50
44271;DHT22;29963;44.594;11.368;2023-03-11T08:20:16;16.70;91.20
44271;DHT22;29963;44.594;11.368;2023-03-11T08:22:41;16.70;91.10
44271;DHT22;29963;44.594;11.368;2023-03-11T08:25:07;16.70;91.10
44271;DHT22;29963;44.594;11.368;2023-03-11T08:27:32;16.80;91.00
44271;DHT22;29963;44.594;11.368;2023-03-11T08:29:58;16.90;91.00
44271;DHT22;29963;44.594;11.368;2023-03-11T08:32:24;16.90;90.60
44271;DHT22;29963;44.594;11.368;2023-03-11T08:34:49;17.10;90.60
44271;DHT22;29963;44.594;11.368;2023-03-11T08:37:15;17.10;90.70
44271;DHT22;29963;44.594;11.368;2023-03-11T08:39:41;17.20;90.20
44271;DHT22;29963;44.594;11.368;2023-03-11T08:42:06;17.30;90.20
44271;DHT22;29963;44.594;11.368;2023-03-11T08:44:32;17.40;89.90
44271;DHT22;29963;44.594;11.368;2023-03-11T08:46:57;17.50;88.60
44271;DHT22;29963;44.594;11.368;2023-03-11T08:49:23;17.50;88.40
44271;DHT22;29963;44.594;11.368;2023-03-11T08:51:49;17.50;88.10
44271;DHT22;29963;44.594;11.368;2023-03-11T08:54:14;17.60;88.50
44271;DHT22;29963;44.594;11.368;2023-03-11T08:56:40;17.70;87.50
44271;DHT22;29963;44.594;11.368;2023-03-11T08:59:07;17.70;86.90
44271;DHT22;29963;44.594;11.368;2023-03-11T09:01:32;17.80;86.00
44271;DHT22;29963;44.594;11.368;2023-03-11T09:03:58;17.80;85.80
44271;DHT22;29963;44.594;11.368;2023-03-11T09:06:24;17.90;85.80
44271;DHT22;29963;44.594;11.368;2023-03-11T09:08:50;17.90;86.60
44271;DHT22;29963;44.594;11.368;2023-03-11T09:11:18;18.00;86.90
44271;DHT22;29963;44.594;11.368;2023-03-11T09:13:46;18.20;86.40
44271;DHT22;29963;44.594;11.368;2023-03-11T09:16:30;18.20;85.50
44271;DHT22;29963;44.594;11.368;2023-03-11T09:18:56;18.30;84.60
44271;DHT22;29963;44.594;11.368;2023-03-11T09:21:24;18.30;84.30
44271;DHT22;29963;44.594;11.368;2023-03-11T09:23:50;18.40;83.80
44271;DHT22;29963;44.594;11.368;2023-03-11T09:26:15;18.40;84.80
44271;DHT22;29963;44.594;11.368;2023-03-11T09:28:41;18.40;84.20
44271;DHT22;29963;44.594;11.368;2023-03-11T09:31:07;18.50;84.30
44271;DHT22;29963;44.594;11.368;2023-03-11T09:33:41;18.60;84.40
44271;DHT22;29963;44.594;11.368;2023-03-11T09:36:09;18.60;84.70
44271;DHT22;29963;44.594;11.368;2023-03-11T09:38:36;18.80;85.00
44271;DHT22;29963;44.594;11.368;2023-03-11T09:43:52;18.90;84.10
44271;DHT22;29963;44.594;11.368;2023-03-11T09:46:32;18.90;82.80
44271;DHT22;29963;44.594;11.368;2023-03-11T09:51:52;19.00;82.50
44271;DHT22;29963;44.594;11.368;2023-03-11T09:54:21;19.20;82.70
44271;DHT22;29963;44.594;11.368;2023-03-11T09:56:47;19.30;82.60
44271;DHT22;29963;44.594;11.368;2023-03-11T09:59:17;19.40;83.00
44271;DHT22;29963;44.594;11.368;2023-03-11T10:01:48;19.40;82.80
44271;DHT22;29963;44.594;11.368;2023-03-11T10:04:29;19.50;81.70
44271;DHT22;29963;44.594;11.368;2023-03-11T10:06:56;19.50;81.90
44271;DHT22;29963;44.594;11.368;2023-03-11T10:09:45;19.50;81.30
44271;DHT22;29963;44.594;11.368;2023-03-11T10:12:15;19.50;81.60
44271;DHT22;29963;44.594;11.368;2023-03-11T10:20:41;19.70;78.60
44271;DHT22;29963;44.594;11.368;2023-03-11T10:28:34;19.70;79.90
44271;DHT22;29963;44.594;11.368;2023-03-11T10:31:16;19.80;79.40
44271;DHT22;29963;44.594;11.368;2023-03-11T10:37:38;19.90;77.60
44271;DHT22;29963;44.594;11.368;2023-03-11T10:40:36;19.90;77.00
44271;DHT22;29963;44.594;11.368;2023-03-11T10:43:19;20.00;76.30
44271;DHT22;29963;44.594;11.368;2023-03-11T10:45:47;20.00;75.30
44271;DHT22;29963;44.594;11.368;2023-03-11T10:48:16;20.10;75.90
44271;DHT22;29963;44.594;11.368;2023-03-11T10:53:16;20.20;78.20
44271;DHT22;29963;44.594;11.368;2023-03-11T10:55:53;20.20;76.00
44271;DHT22;29963;44.594;11.368;2023-03-11T10:58:21;20.30;74.50
44271;DHT22;29963;44.594;11.368;2023-03-11T11:01:15;20.30;75.20
44271;DHT22;29963;44.594;11.368;2023-03-11T11:03:42;20.30;75.40
44271;DHT22;29963;44.594;11.368;2023-03-11T11:09:23;20.40;76.60
44271;DHT22;29963;44.594;11.368;2023-03-11T11:12:15;20.40;75.80
44271;DHT22;29963;44.594;11.368;2023-03-11T11:14:49;20.50;74.50
44271;DHT22;29963;44.594;11.368;2023-03-11T11:17:32;20.50;75.40
44271;DHT22;29963;44.594;11.368;2023-03-11T11:20:00;20.50;77.40
44271;DHT22;29963;44.594;11.368;2023-03-11T11:22:38;20.50;75.80
44271;DHT22;29963;44.594;11.368;2023-03-11T11:25:57;20.50;75.40
44271;DHT22;29963;44.594;11.368;2023-03-11T11:28:18;20.50;77.00
44271;DHT22;29963;44.594;11.368;2023-03-11T11:30:53;20.60;78.30
44271;DHT22;29963;44.594;11.368;2023-03-11T11:33:22;20.70;79.60
44271;DHT22;29963;44.594;11.368;2023-03-11T11:35:54;20.70;77.10
44271;DHT22;29963;44.594;11.368;2023-03-11T11:38:24;20.70;77.80
44271;DHT22;29963;44.594;11.368;2023-03-11T11:40:51;20.70;77.50
44271;DHT22;29963;44.594;11.368;2023-03-11T11:43:20;20.70;77.60
44271;DHT22;29963;44.594;11.368;2023-03-11T11:45:54;20.70;78.80
44271;DHT22;29963;44.594;11.368;2023-03-11T11:48:55;20.80;80.60
44271;DHT22;29963;44.594;11.368;2023-03-11T11:51:35;20.90;78.90
44271;DHT22;29963;44.594;11.368;2023-03-11T11:56:58;21.00;77.10
44271;DHT22;29963;44.594;11.368;2023-03-11T11:59:24;21.00;76.30
44271;DHT22;29963;44.594;11.368;2023-03-11T12:02:28;21.10;74.60
44271;DHT22;29963;44.594;11.368;2023-03-11T12:10:32;21.30;73.40
44271;DHT22;29963;44.594;11.368;2023-03-11T12:27:03;21.40;72.90
44271;DHT22;29963;44.594;11.368;2023-03-11T12:29:34;21.40;73.80
44271;DHT22;29963;44.594;11.368;2023-03-11T12:32:01;21.40;73.40
44271;DHT22;29963;44.594;11.368;2023-03-11T12:34:28;21.40;72.70
44271;DHT22;29963;44.594;11.368;2023-03-11T12:36:58;21.40;73.80
44271;DHT22;29963;44.594;11.368;2023-03-11T12:39:32;21.40;74.20
44271;DHT22;29963;44.594;11.368;2023-03-11T12:44:37;21.30;75.50
44271;DHT22;29963;44.594;11.368;2023-03-11T12:49:39;21.30;76.40
44271;DHT22;29963;44.594;11.368;2023-03-11T12:54:41;21.30;75.50
44271;DHT22;29963;44.594;11.368;2023-03-11T13:08:51;21.50;72.70
44271;DHT22;29963;44.594;11.368;2023-03-11T13:14:21;21.60;74.40
44271;DHT22;29963;44.594;11.368;2023-03-11T13:16:48;21.70;72.50
44271;DHT22;29963;44.594;11.368;2023-03-11T13:21:55;21.90;72.70
44271;DHT22;29963;44.594;11.368;2023-03-11T13:27:10;21.90;72.90
44271;DHT22;29963;44.594;11.368;2023-03-11T13:42:43;22.40;77.40
44271;DHT22;29963;44.594;11.368;2023-03-11T13:45:34;22.50;76.90
44271;DHT22;29963;44.594;11.368;2023-03-11T13:48:12;22.60;77.30
44271;DHT22;29963;44.594;11.368;2023-03-11T13:50:44;22.70;77.20
44271;DHT22;29963;44.594;11.368;2023-03-11T13:53:32;22.80;77.60
44271;DHT22;29963;44.594;11.368;2023-03-11T13:55:59;23.00;76.40
44271;DHT22;29963;44.594;11.368;2023-03-11T13:58:27;23.10;74.20
44271;DHT22;29963;44.594;11.368;2023-03-11T14:01:00;23.10;75.90
44271;DHT22;29963;44.594;11.368;2023-03-11T14:03:39;23.20;76.30
44271;DHT22;29963;44.594;11.368;2023-03-11T14:06:07;23.40;76.30
44271;DHT22;29963;44.594;11.368;2023-03-11T14:08:36;23.60;72.70
44271;DHT22;29963;44.594;11.368;2023-03-11T14:13:38;23.70;72.80
44271;DHT22;29963;44.594;11.368;2023-03-11T14:16:36;23.70;68.40
44271;DHT22;29963;44.594;11.368;2023-03-11T14:19:16;23.80;68.20
44271;DHT22;29963;44.594;11.368;2023-03-11T14:21:44;23.90;65.50
44271;DHT22;29963;44.594;11.368;2023-03-11T14:24:29;23.90;68.90
44271;DHT22;29963;44.594;11.368;2023-03-11T14:26:56;23.90;72.30
44271;DHT22;29963;44.594;11.368;2023-03-11T14:29:38;24.10;73.20
44271;DHT22;29963;44.594;11.368;2023-03-11T14:32:34;24.30;70.90
44271;DHT22;29963;44.594;11.368;2023-03-11T14:35:00;24.50;69.60
44271;DHT22;29963;44.594;11.368;2023-03-11T14:37:46;24.70;70.70
44271;DHT22;29963;44.594;11.368;2023-03-11T14:40:37;25.00;70.20
44271;DHT22;29963;44.594;11.368;2023-03-11T14:43:06;25.30;70.90
44271;DHT22;29963;44.594;11.368;2023-03-11T14:45:33;25.50;69.90
44271;DHT22;29963;44.594;11.368;2023-03-11T14:48:24;25.90;68.20
44271;DHT22;29963;44.594;11.368;2023-03-11T14:50:51;26.70;63.80
44271;DHT22;29963;44.594;11.368;2023-03-11T14:56:02;29.60;58.30
44271;DHT22;29963;44.594;11.368;2023-03-11T14:58:33;30.90;54.50
44271;DHT22;29963;44.594;11.368;2023-03-11T15:01:16;32.40;53.70
44271;DHT22;29963;44.594;11.368;2023-03-11T15:04:05;33.80;49.80
44271;DHT22;29963;44.594;11.368;2023-03-11T15:06:34;35.10;47.60
44271;DHT22;29963;44.594;11.368;2023-03-11T15:09:13;35.30;40.80
44271;DHT22;29963;44.594;11.368;2023-03-11T15:11:45;34.60;39.70
44271;DHT22;29963;44.594;11.368;2023-03-11T15:14:27;34.40;41.10
44271;DHT22;29963;44.594;11.368;2023-03-11T15:16:54;35.10;42.80
44271;DHT22;29963;44.594;11.368;2023-03-11T15:19:31;35.80;41.30
44271;DHT22;29963;44.594;11.368;2023-03-11T15:22:05;36.10;36.60
44271;DHT22;29963;44.594;11.368;2023-03-11T15:24:31;35.70;36.10
44271;DHT22;29963;44.594;11.368;2023-03-11T15:27:04;35.60;35.90
44271;DHT22;29963;44.594;11.368;2023-03-11T15:29:31;35.10;38.10
44271;DHT22;29963;44.594;11.368;2023-03-11T15:31:57;34.90;40.40
44271;DHT22;29963;44.594;11.368;2023-03-11T15:34:30;35.50;40.30
44271;DHT22;29963;44.594;11.368;2023-03-11T15:36:59;36.20;39.60
44271;DHT22;29963;44.594;11.368;2023-03-11T15:42:10;37.40;39.10
44271;DHT22;29963;44.594;11.368;2023-03-11T15:47:14;37.90;38.70
44271;DHT22;29963;44.594;11.368;2023-03-11T15:49:40;38.10;37.90
44271;DHT22;29963;44.594;11.368;2023-03-11T15:52:06;38.40;37.70
44271;DHT22;29963;44.594;11.368;2023-03-11T15:54:32;38.60;37.40
44271;DHT22;29963;44.594;11.368;2023-03-11T15:56:59;38.60;36.70
44271;DHT22;29963;44.594;11.368;2023-03-11T15:59:27;38.70;37.00
44271;DHT22;29963;44.594;11.368;2023-03-11T16:01:53;38.60;36.80
44271;DHT22;29963;44.594;11.368;2023-03-11T16:04:19;38.70;36.50
44271;DHT22;29963;44.594;11.368;2023-03-11T16:06:46;38.70;36.50
44271;DHT22;29963;44.594;11.368;2023-03-11T16:09:13;38.70;36.30
44271;DHT22;29963;44.594;11.368;2023-03-11T16:11:40;38.60;36.30
44271;DHT22;29963;44.594;11.368;2023-03-11T16:14:14;38.40;36.30
44271;DHT22;29963;44.594;11.368;2023-03-11T16:16:41;38.30;36.20
44271;DHT22;29963;44.594;11.368;2023-03-11T16:19:06;38.30;36.20
44271;DHT22;29963;44.594;11.368;2023-03-11T16:21:36;38.40;36.40
44271;DHT22;29963;44.594;11.368;2023-03-11T16:24:04;38.40;36.40
44271;DHT22;29963;44.594;11.368;2023-03-11T16:26:30;38.30;36.30
44271;DHT22;29963;44.594;11.368;2023-03-11T16:28:57;38.20;36.30
44271;DHT22;29963;44.594;11.368;2023-03-11T16:31:22;38.00;36.40
44271;DHT22;29963;44.594;11.368;2023-03-11T16:33:48;37.80;36.60
44271;DHT22;29963;44.594;11.368;2023-03-11T16:36:14;37.50;36.70
44271;DHT22;29963;44.594;11.368;2023-03-11T16:38:45;37.10;36.80
44271;DHT22;29963;44.594;11.368;2023-03-11T16:41:11;36.90;37.10
44271;DHT22;29963;44.594;11.368;2023-03-11T16:43:36;36.60;37.50
44271;DHT22;29963;44.594;11.368;2023-03-11T16:46:02;36.30;37.50
44271;DHT22;29963;44.594;11.368;2023-03-11T16:48:28;36.00;37.80
44271;DHT22;29963;44.594;11.368;2023-03-11T16:50:53;35.60;38.00
44271;DHT22;29963;44.594;11.368;2023-03-11T16:53:19;35.30;38.40
44271;DHT22;29963;44.594;11.368;2023-03-11T16:55:46;34.90;39.00
44271;DHT22;29963;44.594;11.368;2023-03-11T16:58:13;34.10;40.80
44271;DHT22;29963;44.594;11.368;2023-03-11T17:00:39;33.20;43.30
44271;DHT22;29963;44.594;11.368;2023-03-11T17:03:07;32.40;45.80
44271;DHT22;29963;44.594;11.368;2023-03-11T17:05:32;31.50;46.60
44271;DHT22;29963;44.594;11.368;2023-03-11T17:07:58;30.70;48.30
44271;DHT22;29963;44.594;11.368;2023-03-11T17:10:42;30.00;49.20
44271;DHT22;29963;44.594;11.368;2023-03-11T17:13:10;28.90;51.20